createdAt,value
2017-12-17T00:01:26.275Z,90.80
2017-12-17T00:03:54.150Z,91.40
2017-12-17T00:06:21.625Z,91.60
2017-12-17T00:08:48.767Z,91.50
2017-12-17T00:11:15.919Z,91.20
2017-12-17T00:13:43.047Z,91.50
2017-12-17T00:16:10.128Z,91.10
2017-12-17T00:18:37.284Z,90.70
2017-12-17T00:21:04.334Z,90.80
2017-12-17T00:23:31.396Z,91.10
2017-12-17T00:25:58.665Z,90.30
2017-12-17T00:28:26.415Z,90.80
2017-12-17T00:30:53.468Z,90.10
2017-12-17T00:33:20.727Z,90.60
2017-12-17T00:35:47.975Z,90.80
2017-12-17T00:38:15.445Z,91.10
2017-12-17T00:40:42.596Z,91.30
2017-12-17T00:43:09.807Z,91.10
2017-12-17T00:45:36.903Z,90.50
2017-12-17T00:48:04.060Z,90.70
2017-12-17T00:50:32.039Z,90.70
2017-12-17T00:52:59.295Z,90.60
2017-12-17T00:55:26.348Z,90.30
2017-12-17T00:57:53.491Z,91.10
2017-12-17T01:00:20.655Z,90.20
2017-12-17T01:02:47.808Z,90.30
2017-12-17T01:05:14.907Z,89.20
2017-12-17T01:07:42.905Z,90.40
2017-12-17T01:10:09.892Z,90.40
2017-12-17T01:12:37.152Z,90.00
2017-12-17T01:15:04.199Z,90.70
2017-12-17T01:17:32.175Z,91.00
2017-12-17T01:19:59.711Z,90.90
2017-12-17T01:22:26.778Z,91.80
2017-12-17T01:24:53.769Z,91.80
2017-12-17T01:27:20.985Z,91.80
2017-12-17T01:29:48.031Z,91.60
2017-12-17T01:32:15.921Z,91.20
2017-12-17T01:34:42.961Z,90.90
2017-12-17T01:37:10.006Z,90.50
2017-12-17T01:39:37.173Z,91.20
2017-12-17T01:42:04.217Z,90.80
2017-12-17T01:44:31.226Z,90.70
2017-12-17T01:46:59.046Z,90.00
2017-12-17T01:49:27.174Z,90.00
2017-12-17T01:51:55.091Z,90.50
2017-12-17T01:54:22.254Z,90.50
2017-12-17T01:56:49.401Z,90.40
2017-12-17T01:59:16.657Z,89.80
2017-12-17T02:01:43.822Z,90.10
2017-12-17T02:04:10.862Z,91.00
2017-12-17T02:06:38.040Z,90.90
2017-12-17T02:09:06.313Z,91.00
2017-12-17T02:11:33.457Z,91.40
2017-12-17T02:14:00.713Z,91.10
2017-12-17T02:16:27.769Z,91.90
2017-12-17T02:18:54.929Z,91.90
2017-12-17T02:21:22.078Z,91.50
2017-12-17T02:23:49.338Z,91.40
2017-12-17T02:26:16.702Z,91.30
2017-12-17T02:28:43.853Z,91.10
2017-12-17T02:31:11.006Z,90.80
2017-12-17T02:33:38.057Z,90.90
2017-12-17T02:36:05.113Z,90.80
2017-12-17T02:38:32.473Z,91.50
2017-12-17T02:40:59.581Z,91.10
2017-12-17T02:43:26.750Z,91.00
2017-12-17T02:45:54.758Z,91.30
2017-12-17T02:48:21.907Z,90.90
2017-12-17T02:50:49.121Z,91.40
2017-12-17T02:53:16.917Z,90.90
2017-12-17T02:55:43.990Z,90.90
2017-12-17T02:58:11.205Z,91.30
2017-12-17T03:00:38.300Z,91.60
2017-12-17T03:03:05.465Z,91.50
2017-12-17T03:05:32.926Z,90.80
2017-12-17T03:08:00.142Z,91.80
2017-12-17T03:10:28.265Z,91.30
2017-12-17T03:12:55.297Z,91.30
2017-12-17T03:15:22.665Z,91.60
2017-12-17T03:17:49.817Z,91.10
2017-12-17T03:20:17.281Z,91.10
2017-12-17T03:22:44.662Z,90.90
2017-12-17T03:25:11.693Z,90.70
2017-12-17T03:27:38.744Z,90.60
2017-12-17T03:30:05.772Z,90.70
2017-12-17T03:32:32.981Z,90.30
2017-12-17T03:35:01.655Z,90.70
2017-12-17T03:37:28.701Z,90.70
2017-12-17T03:39:55.921Z,90.00
2017-12-17T03:42:23.116Z,90.50
2017-12-17T03:44:50.773Z,90.00
2017-12-17T03:47:17.836Z,89.90
2017-12-17T03:49:44.981Z,89.90
2017-12-17T03:52:12.045Z,90.40
2017-12-17T03:54:39.405Z,90.60
2017-12-17T03:57:06.448Z,90.20
2017-12-17T03:59:33.524Z,89.90
2017-12-17T04:02:00.654Z,90.00
2017-12-17T04:04:28.121Z,90.10
2017-12-17T04:06:55.888Z,90.00
2017-12-17T04:09:22.950Z,90.20
2017-12-17T04:11:51.526Z,90.10
2017-12-17T04:14:18.681Z,89.50
2017-12-17T04:16:45.862Z,89.80
2017-12-17T04:19:12.888Z,90.50
2017-12-17T04:21:40.161Z,91.10
2017-12-17T04:24:07.293Z,90.50
2017-12-17T04:26:34.406Z,90.50
2017-12-17T04:29:02.433Z,89.70
2017-12-17T04:31:29.785Z,89.60
2017-12-17T04:33:57.048Z,90.20
2017-12-17T04:36:24.304Z,89.70
2017-12-17T04:38:51.257Z,90.50
2017-12-17T04:41:18.717Z,90.20
2017-12-17T04:43:45.869Z,90.20
2017-12-17T04:46:13.232Z,90.00
2017-12-17T04:48:40.497Z,90.40
2017-12-17T04:51:08.152Z,90.40
2017-12-17T04:53:35.178Z,90.50
2017-12-17T04:56:02.361Z,90.10
2017-12-17T04:58:29.520Z,90.40
2017-12-17T05:00:56.573Z,90.40
2017-12-17T05:03:24.451Z,89.80
2017-12-17T05:05:51.607Z,89.50
2017-12-17T05:08:18.864Z,89.50
2017-12-17T05:10:45.901Z,89.50
2017-12-17T05:13:13.069Z,89.30
2017-12-17T05:15:40.221Z,89.20
2017-12-17T05:18:08.085Z,89.40
2017-12-17T05:20:35.245Z,89.20
2017-12-17T05:23:02.398Z,89.10
2017-12-17T05:25:29.757Z,89.10
2017-12-17T05:27:57.023Z,90.10
2017-12-17T05:30:24.256Z,90.40
2017-12-17T05:32:51.430Z,90.30
2017-12-17T05:35:18.481Z,90.40
2017-12-17T05:37:46.049Z,90.70
2017-12-17T05:40:14.016Z,90.10
2017-12-17T05:42:41.281Z,90.20
2017-12-17T05:45:08.433Z,90.30
2017-12-17T05:47:35.989Z,89.90
2017-12-17T05:50:03.153Z,89.30
2017-12-17T05:52:30.625Z,88.90
2017-12-17T05:54:57.651Z,88.30
2017-12-17T05:57:24.822Z,88.30
2017-12-17T05:59:52.081Z,89.20
2017-12-17T06:02:19.953Z,89.30
2017-12-17T06:04:47.001Z,89.50
2017-12-17T06:07:14.262Z,89.40
2017-12-17T06:09:41.818Z,89.70
2017-12-17T06:12:08.977Z,89.90
2017-12-17T06:14:36.033Z,89.60
2017-12-17T06:17:03.390Z,89.10
2017-12-17T06:19:30.341Z,89.20
2017-12-17T06:21:57.497Z,89.10
2017-12-17T06:24:24.710Z,89.20
2017-12-17T06:26:52.593Z,89.30
2017-12-17T06:29:20.502Z,89.30
2017-12-17T06:31:47.540Z,89.20
2017-12-17T06:34:14.710Z,89.30
2017-12-17T06:36:41.966Z,89.60
2017-12-17T06:39:09.112Z,89.10
2017-12-17T06:41:36.387Z,89.30
2017-12-17T06:44:03.525Z,90.20
2017-12-17T06:46:31.609Z,90.30
2017-12-17T06:48:58.765Z,90.70
2017-12-17T06:51:26.125Z,90.40
2017-12-17T06:53:53.285Z,89.70
2017-12-17T06:56:20.633Z,90.10
2017-12-17T06:58:47.889Z,90.30
2017-12-17T07:01:15.161Z,89.70
2017-12-17T07:03:42.273Z,89.80
2017-12-17T07:06:10.284Z,90.20
2017-12-17T07:08:37.441Z,90.20
2017-12-17T07:11:04.488Z,89.70
2017-12-17T07:13:31.551Z,89.30
2017-12-17T07:15:58.595Z,89.20
2017-12-17T07:18:25.646Z,89.40
2017-12-17T07:20:52.800Z,89.80
2017-12-17T07:23:19.861Z,89.80
2017-12-17T07:25:48.137Z,88.90
2017-12-17T07:28:15.392Z,88.90
2017-12-17T07:30:42.545Z,88.20
2017-12-17T07:33:09.600Z,88.00
2017-12-17T07:35:36.761Z,88.40
2017-12-17T07:38:04.014Z,88.00
2017-12-17T07:40:31.373Z,89.00
2017-12-17T07:42:58.520Z,89.10
2017-12-17T07:45:25.472Z,89.50
2017-12-17T07:47:52.649Z,89.50
2017-12-17T07:50:19.894Z,88.90
2017-12-17T07:52:47.048Z,88.90
2017-12-17T07:55:14.206Z,87.90
2017-12-17T07:57:56.496Z,87.90
2017-12-17T08:00:23.774Z,88.10
2017-12-17T08:02:50.918Z,87.70
2017-12-17T08:05:17.966Z,87.60
2017-12-17T08:07:45.343Z,87.90
2017-12-17T08:10:12.377Z,88.00
2017-12-17T08:12:39.745Z,87.70
2017-12-17T08:15:06.670Z,88.00
2017-12-17T08:17:33.798Z,88.00
2017-12-17T08:20:01.918Z,87.90
2017-12-17T08:22:29.286Z,87.80
2017-12-17T08:24:56.537Z,87.50
2017-12-17T08:27:23.662Z,87.70
2017-12-17T08:29:50.710Z,87.60
2017-12-17T08:32:18.824Z,86.60
2017-12-17T08:34:45.978Z,86.60
2017-12-17T08:37:13.032Z,86.70
2017-12-17T08:39:40.286Z,87.80
2017-12-17T08:42:07.409Z,87.70
2017-12-17T08:44:34.502Z,87.90
2017-12-17T08:47:01.650Z,88.00
2017-12-17T08:49:28.609Z,87.30
2017-12-17T08:51:55.657Z,86.60
2017-12-17T08:54:22.812Z,86.30
2017-12-17T08:56:49.970Z,85.40
2017-12-17T08:59:17.222Z,84.10
2017-12-17T09:01:44.260Z,84.90
2017-12-17T09:04:11.329Z,83.50
2017-12-17T09:06:38.582Z,82.90
2017-12-17T09:09:05.645Z,81.70
2017-12-17T09:11:32.646Z,80.90
2017-12-17T09:14:00.462Z,80.10
2017-12-17T09:16:27.606Z,80.10
2017-12-17T09:18:55.702Z,81.60
2017-12-17T09:21:22.744Z,81.80
2017-12-17T09:23:50.007Z,82.20
2017-12-17T09:26:16.950Z,82.50
2017-12-17T09:28:44.105Z,82.30
2017-12-17T09:31:11.262Z,82.30
2017-12-17T09:33:38.262Z,82.50
2017-12-17T09:36:06.181Z,82.70
2017-12-17T09:38:33.338Z,82.70
2017-12-17T09:41:00.600Z,82.00
2017-12-17T09:43:27.593Z,80.70
2017-12-17T09:45:54.694Z,80.90
2017-12-17T09:48:21.753Z,81.90
2017-12-17T09:50:49.008Z,81.00
2017-12-17T09:53:16.166Z,80.20
2017-12-17T09:55:43.422Z,79.40
2017-12-17T09:58:10.758Z,79.60
2017-12-17T10:00:37.869Z,79.30
2017-12-17T10:03:04.890Z,80.10
2017-12-17T10:05:32.352Z,79.60
2017-12-17T10:07:59.606Z,79.70
2017-12-17T10:10:26.767Z,79.40
2017-12-17T10:12:53.833Z,79.30
2017-12-17T10:15:20.976Z,78.90
2017-12-17T10:17:48.438Z,79.30
2017-12-17T10:20:16.409Z,79.60
2017-12-17T10:22:43.533Z,79.70
2017-12-17T10:25:11.439Z,79.80
2017-12-17T10:27:38.481Z,80.10
2017-12-17T10:30:05.670Z,80.90
2017-12-17T10:32:33.623Z,81.90
2017-12-17T10:35:00.669Z,81.00
2017-12-17T10:37:27.798Z,81.60
2017-12-17T10:39:54.871Z,81.80
2017-12-17T10:42:21.934Z,81.70
2017-12-17T10:44:48.982Z,82.40
2017-12-17T10:47:16.249Z,82.30
2017-12-17T10:49:43.494Z,82.70
2017-12-17T10:52:10.554Z,82.60
2017-12-17T10:54:37.607Z,82.70
2017-12-17T10:57:04.827Z,82.50
2017-12-17T10:59:31.926Z,81.90
2017-12-17T11:01:59.070Z,81.00
2017-12-17T11:04:26.556Z,81.40
2017-12-17T11:06:53.562Z,81.70
2017-12-17T11:09:20.638Z,81.60
2017-12-17T11:11:47.798Z,81.80
2017-12-17T11:14:14.940Z,82.20
2017-12-17T11:16:42.145Z,82.50
2017-12-17T11:19:09.295Z,82.90
2017-12-17T11:21:37.121Z,82.60
2017-12-17T11:24:04.385Z,83.10
2017-12-17T11:26:31.438Z,83.00
2017-12-17T11:28:58.694Z,82.50
2017-12-17T11:31:25.958Z,82.90
2017-12-17T11:33:53.105Z,82.20
2017-12-17T11:36:20.166Z,81.70
2017-12-17T11:38:47.214Z,81.90
2017-12-17T11:41:14.300Z,81.60
2017-12-17T11:43:41.358Z,81.70
2017-12-17T11:46:08.474Z,81.40
2017-12-17T11:48:35.535Z,82.20
2017-12-17T11:51:03.193Z,81.80
2017-12-17T11:53:30.453Z,82.10
2017-12-17T11:55:57.914Z,83.10
2017-12-17T11:58:24.981Z,83.90
2017-12-17T12:00:52.329Z,84.40
2017-12-17T12:03:19.477Z,84.60
2017-12-17T12:05:47.566Z,84.90
2017-12-17T12:08:14.855Z,84.50
2017-12-17T12:10:42.065Z,85.20
2017-12-17T12:13:09.128Z,85.40
2017-12-17T12:15:36.184Z,85.80
2017-12-17T12:18:03.815Z,85.70
2017-12-17T12:20:31.102Z,87.00
2017-12-17T12:22:58.150Z,87.00
2017-12-17T12:25:25.230Z,87.60
2017-12-17T12:27:52.478Z,87.60
2017-12-17T12:30:19.526Z,87.20
2017-12-17T12:32:47.523Z,87.70
2017-12-17T12:35:14.650Z,87.40
2017-12-17T12:37:41.712Z,87.20
2017-12-17T12:40:09.057Z,87.20
2017-12-17T12:42:36.413Z,86.30
2017-12-17T12:45:03.653Z,85.90
2017-12-17T12:47:30.829Z,86.00
2017-12-17T12:49:57.987Z,86.00
2017-12-17T12:52:25.554Z,86.10
2017-12-17T12:54:52.673Z,86.50
2017-12-17T12:57:19.634Z,86.50
2017-12-17T12:59:46.812Z,86.40
2017-12-17T13:02:14.094Z,86.40
2017-12-17T13:04:41.225Z,86.50
2017-12-17T13:07:08.685Z,86.30
2017-12-17T13:09:35.942Z,86.10
2017-12-17T13:12:02.993Z,85.70
2017-12-17T13:14:30.149Z,85.40
2017-12-17T13:16:57.212Z,86.40
2017-12-17T13:19:24.561Z,85.30
2017-12-17T13:21:51.719Z,85.30
2017-12-17T13:24:19.485Z,85.30
2017-12-17T13:26:46.670Z,85.50
2017-12-17T13:29:13.907Z,85.60
2017-12-17T13:31:41.054Z,85.30
2017-12-17T13:34:08.113Z,85.10
2017-12-17T13:36:35.265Z,85.40
2017-12-17T13:39:02.617Z,85.40
2017-12-17T13:41:29.678Z,84.80
2017-12-17T13:43:56.754Z,85.40
2017-12-17T13:46:25.414Z,84.90
2017-12-17T13:48:52.470Z,84.90
2017-12-17T13:51:19.625Z,84.90
2017-12-17T13:53:46.781Z,85.00
2017-12-17T13:56:14.052Z,84.40
2017-12-17T13:58:41.908Z,83.80
2017-12-17T14:01:09.166Z,84.00
2017-12-17T14:03:36.417Z,84.70
2017-12-17T14:06:03.582Z,82.90
2017-12-17T14:08:30.742Z,83.50
2017-12-17T14:10:57.803Z,84.60
2017-12-17T14:13:25.038Z,85.90
2017-12-17T14:15:52.097Z,86.50
2017-12-17T14:18:19.240Z,87.00
2017-12-17T14:20:46.399Z,87.10
2017-12-17T14:23:13.465Z,87.10
2017-12-17T14:25:41.536Z,86.50
2017-12-17T14:28:08.558Z,86.50
2017-12-17T14:30:35.640Z,85.80
2017-12-17T14:33:02.898Z,85.80
2017-12-17T14:35:29.975Z,85.40
2017-12-17T14:37:57.332Z,85.90
2017-12-17T14:40:27.660Z,85.60
2017-12-17T14:42:54.911Z,86.20
2017-12-17T14:45:21.983Z,86.90
2017-12-17T14:47:49.977Z,86.00
2017-12-17T14:50:18.559Z,85.90
2017-12-17T14:52:46.396Z,85.20
2017-12-17T14:55:13.631Z,85.20
2017-12-17T14:57:40.707Z,85.20
2017-12-17T15:00:07.833Z,84.20
2017-12-17T15:02:35.021Z,84.80
2017-12-17T15:05:02.160Z,85.70
2017-12-17T15:07:29.533Z,85.90
2017-12-17T15:09:56.888Z,86.20
2017-12-17T15:12:24.052Z,84.90
2017-12-17T15:14:51.100Z,85.70
2017-12-17T15:17:18.204Z,85.00
2017-12-17T15:19:46.126Z,83.60
2017-12-17T15:22:13.042Z,84.60
2017-12-17T15:24:40.228Z,85.10
2017-12-17T15:27:07.387Z,84.50
2017-12-17T15:29:35.607Z,86.10
2017-12-17T15:32:03.743Z,85.90
2017-12-17T15:34:31.104Z,85.90
2017-12-17T15:36:58.257Z,84.30
2017-12-17T15:39:25.415Z,84.30
2017-12-17T15:41:53.176Z,82.90
2017-12-17T15:44:20.439Z,83.70
2017-12-17T15:46:47.495Z,82.40
2017-12-17T15:49:14.639Z,81.60
2017-12-17T15:51:42.939Z,84.10
2017-12-17T15:54:10.242Z,84.80
2017-12-17T15:56:38.170Z,85.10
2017-12-17T15:59:05.415Z,85.10
2017-12-17T16:01:32.526Z,85.90
2017-12-17T16:03:59.660Z,86.50
2017-12-17T16:06:27.495Z,86.20
2017-12-17T16:08:55.060Z,86.10
2017-12-17T16:11:22.121Z,86.60
2017-12-17T16:13:49.164Z,86.30
2017-12-17T16:16:16.324Z,86.50
2017-12-17T16:18:43.586Z,86.20
2017-12-17T16:21:10.942Z,86.30
2017-12-17T16:23:38.095Z,86.70
2017-12-17T16:26:05.399Z,86.10
2017-12-17T16:28:32.609Z,86.20
2017-12-17T16:30:59.671Z,85.90
2017-12-17T16:33:26.647Z,86.00
2017-12-17T16:35:54.484Z,86.40
2017-12-17T16:38:21.486Z,86.40
2017-12-17T16:40:48.588Z,86.80
2017-12-17T16:43:15.639Z,86.70
2017-12-17T16:45:43.092Z,87.30
2017-12-17T16:48:10.255Z,87.20
2017-12-17T16:50:37.315Z,88.70
2017-12-17T16:53:04.467Z,89.10
2017-12-17T16:55:31.829Z,89.60
2017-12-17T16:57:59.799Z,89.50
2017-12-17T17:00:26.964Z,89.30
2017-12-17T17:02:54.111Z,89.10
2017-12-17T17:05:21.367Z,89.20
2017-12-17T17:07:48.728Z,89.10
2017-12-17T17:10:15.860Z,88.90
2017-12-17T17:12:43.037Z,89.00
2017-12-17T17:15:10.092Z,88.90
2017-12-17T17:17:37.176Z,89.20
2017-12-17T17:20:05.022Z,89.10
2017-12-17T17:22:32.020Z,89.00
2017-12-17T17:24:59.121Z,89.00
2017-12-17T17:27:26.894Z,89.00
2017-12-17T17:29:54.096Z,88.50
2017-12-17T17:32:21.205Z,89.50
2017-12-17T17:34:48.263Z,89.60
2017-12-17T17:37:16.228Z,88.40
2017-12-17T17:39:43.489Z,88.50
2017-12-17T17:42:10.639Z,87.20
2017-12-17T17:44:37.895Z,87.30
2017-12-17T17:47:04.969Z,87.90
2017-12-17T17:49:32.822Z,88.30
2017-12-17T17:52:01.100Z,88.40
2017-12-17T17:54:28.148Z,88.30
2017-12-17T17:56:55.999Z,86.90
2017-12-17T17:59:23.079Z,87.00
2017-12-17T18:01:50.132Z,86.10
2017-12-17T18:04:17.292Z,87.40
2017-12-17T18:06:44.535Z,87.70
2017-12-17T18:09:11.801Z,88.20
2017-12-17T18:11:39.166Z,87.00
2017-12-17T18:14:06.215Z,86.50
2017-12-17T18:16:33.367Z,86.60
2017-12-17T18:19:00.728Z,85.80
2017-12-17T18:21:28.423Z,86.60
2017-12-17T18:23:56.287Z,87.50
2017-12-17T18:26:24.892Z,87.50
2017-12-17T18:28:53.586Z,87.70
2017-12-17T18:31:21.382Z,87.60
2017-12-17T18:33:48.675Z,87.50
2017-12-17T18:36:16.752Z,87.10
2017-12-17T18:38:43.756Z,87.50
2017-12-17T18:41:11.606Z,87.70
2017-12-17T18:43:39.440Z,88.00
2017-12-17T18:46:06.615Z,88.00
2017-12-17T18:48:34.567Z,87.50
2017-12-17T18:51:01.625Z,87.60
2017-12-17T18:53:28.879Z,86.40
2017-12-17T18:55:56.143Z,87.00
2017-12-17T18:58:25.444Z,88.30
2017-12-17T19:00:52.600Z,88.60
2017-12-17T19:03:19.855Z,89.30
2017-12-17T19:05:47.007Z,88.60
2017-12-17T19:08:14.377Z,90.10
2017-12-17T19:10:41.559Z,89.70
2017-12-17T19:13:10.022Z,89.00
2017-12-17T19:15:37.240Z,88.90
2017-12-17T19:18:04.425Z,90.30
2017-12-17T19:20:31.525Z,90.20
2017-12-17T19:22:58.831Z,89.20
2017-12-17T19:25:26.399Z,91.00
2017-12-17T19:27:53.788Z,92.10
2017-12-17T19:30:22.679Z,91.30
2017-12-17T19:32:50.471Z,91.40
2017-12-17T19:35:17.983Z,90.70
2017-12-17T19:37:45.556Z,90.00
2017-12-17T19:40:13.215Z,89.70
2017-12-17T19:42:42.217Z,90.00
2017-12-17T19:45:09.780Z,89.20
2017-12-17T19:47:37.265Z,89.70
2017-12-17T19:50:04.799Z,89.70
2017-12-17T19:52:32.879Z,88.60
2017-12-17T19:55:00.551Z,88.40
2017-12-17T19:57:27.860Z,87.10
2017-12-17T19:59:56.735Z,88.70
2017-12-17T20:02:24.983Z,88.70
2017-12-17T20:04:52.447Z,88.60
2017-12-17T20:07:20.828Z,86.00
2017-12-17T20:09:49.004Z,85.90
2017-12-17T20:12:16.367Z,86.90
2017-12-17T20:14:44.345Z,87.70
2017-12-17T20:17:11.800Z,87.90
2017-12-17T20:19:39.568Z,87.80
2017-12-17T20:22:07.032Z,85.00
2017-12-17T20:24:34.539Z,83.30
2017-12-17T20:27:02.167Z,82.20
2017-12-17T20:29:29.735Z,82.30
2017-12-17T20:31:57.187Z,83.30
2017-12-17T20:34:25.167Z,83.50
2017-12-17T20:36:52.755Z,83.00
2017-12-17T20:39:20.923Z,80.80
2017-12-17T20:41:48.267Z,80.60
2017-12-17T20:44:15.518Z,81.00
2017-12-17T20:46:43.805Z,82.20
2017-12-17T20:49:10.997Z,83.00
2017-12-17T20:51:38.933Z,84.80
2017-12-17T20:54:06.287Z,84.70
2017-12-17T20:56:33.511Z,84.50
2017-12-17T20:59:01.327Z,85.20
2017-12-17T21:01:28.471Z,81.10
2017-12-17T21:03:55.479Z,82.10
2017-12-17T21:06:22.471Z,78.00
2017-12-17T21:08:49.430Z,80.20
2017-12-17T21:11:16.486Z,80.30
2017-12-17T21:13:43.709Z,79.10
2017-12-17T21:16:10.992Z,79.30
2017-12-17T21:18:38.117Z,81.70
2017-12-17T21:21:05.359Z,82.10
2017-12-17T21:23:32.372Z,80.40
2017-12-17T21:26:00.127Z,79.60
2017-12-17T21:28:27.175Z,81.00
2017-12-17T21:30:54.311Z,80.00
2017-12-17T21:33:21.385Z,79.40
2017-12-17T21:35:48.366Z,82.50
2017-12-17T21:38:16.205Z,82.80
2017-12-17T21:40:43.158Z,82.70
2017-12-17T21:43:10.315Z,83.20
2017-12-17T21:45:37.403Z,84.10
2017-12-17T21:48:05.134Z,86.00
2017-12-17T21:50:32.188Z,86.00
2017-12-17T21:52:59.262Z,84.80
2017-12-17T21:55:27.222Z,85.70
2017-12-17T21:57:54.430Z,85.70
2017-12-17T22:00:21.627Z,86.10
2017-12-17T22:02:48.870Z,85.10
2017-12-17T22:05:16.157Z,84.80
2017-12-17T22:07:44.023Z,83.70
2017-12-17T22:10:11.060Z,83.60
2017-12-17T22:12:38.319Z,82.20
2017-12-17T22:15:05.316Z,84.00
2017-12-17T22:17:33.451Z,84.30
2017-12-17T22:20:00.473Z,84.30
2017-12-17T22:22:27.857Z,85.40
2017-12-17T22:24:55.119Z,85.50
2017-12-17T22:27:22.172Z,83.40
2017-12-17T22:29:49.223Z,84.40
2017-12-17T22:32:16.279Z,84.50
2017-12-17T22:34:43.433Z,84.10
2017-12-17T22:37:10.587Z,85.60
2017-12-17T22:39:37.643Z,85.00
2017-12-17T22:42:04.700Z,84.10
2017-12-17T22:44:31.850Z,83.40
2017-12-17T22:46:59.109Z,84.40
2017-12-17T22:49:26.165Z,84.30
2017-12-17T22:51:53.211Z,84.40
2017-12-17T22:54:22.265Z,84.20
2017-12-17T22:56:49.459Z,84.40
2017-12-17T22:59:16.615Z,84.50
2017-12-17T23:01:43.980Z,84.90
2017-12-17T23:04:11.140Z,85.20
2017-12-17T23:06:38.291Z,85.80
2017-12-17T23:09:05.277Z,85.70
2017-12-17T23:11:33.419Z,86.20
2017-12-17T23:14:00.671Z,86.20
2017-12-17T23:16:27.830Z,86.40
2017-12-17T23:18:54.879Z,86.60
2017-12-17T23:21:21.835Z,86.80
2017-12-17T23:23:48.887Z,86.70
2017-12-17T23:26:16.144Z,86.70
2017-12-17T23:28:43.299Z,86.90
2017-12-17T23:31:11.271Z,86.50
2017-12-17T23:33:38.351Z,86.30
2017-12-17T23:36:06.191Z,85.10
2017-12-17T23:38:33.251Z,85.00
2017-12-17T23:41:00.300Z,85.30
2017-12-17T23:43:27.661Z,85.10
2017-12-17T23:45:55.060Z,85.50
2017-12-17T23:48:23.100Z,85.40
2017-12-17T23:50:50.355Z,85.40
2017-12-17T23:53:17.511Z,85.10
2017-12-17T23:55:44.667Z,85.20
2017-12-17T23:58:11.811Z,85.00
